sensor_id;sensor_type;location;lat;lon;timestamp;pressure;altitude;pressure_sealevel;temperature;humidity
23616;BME280;11985;49.404;7.734;2023-02-18T00:03:39;98183.34;;;9.12;100.00
23616;BME280;11985;49.404;7.734;2023-02-18T00:08:43;98191.84;;;9.14;100.00
23616;BME280;11985;49.404;7.734;2023-02-18T00:13:49;98173.97;;;9.09;100.00
23616;BME280;11985;49.404;7.734;2023-02-18T00:18:54;98173.53;;;9.06;100.00
23616;BME280;11985;49.404;7.734;2023-02-18T00:23:57;98183.03;;;9.07;100.00
23616;BME280;11985;49.404;7.734;2023-02-18T00:28:59;98182.38;;;9.05;100.00
23616;BME280;11985;49.404;7.734;2023-02-18T00:34:02;98178.78;;;9.06;100.00
23616;BME280;11985;49.404;7.734;2023-02-18T00:39:07;98179.41;;;9.08;100.00
23616;BME280;11985;49.404;7.734;2023-02-18T00:44:09;98162.66;;;9.09;100.00
23616;BME280;11985;49.404;7.734;2023-02-18T00:49:12;98153.63;;;9.11;100.00
23616;BME280;11985;49.404;7.734;2023-02-18T00:54:15;98165.75;;;9.12;100.00
23616;BME280;11985;49.404;7.734;2023-02-18T00:59:16;98149.81;;;9.14;100.00
23616;BME280;11985;49.404;7.734;2023-02-18T01:04:18;98146.53;;;9.12;100.00
23616;BME280;11985;49.404;7.734;2023-02-18T01:09:21;98151.31;;;9.08;100.00
23616;BME280;11985;49.404;7.734;2023-02-18T01:14:24;98153.47;;;9.05;100.00
23616;BME280;11985;49.404;7.734;2023-02-18T01:19:26;98170.59;;;9.01;100.00
23616;BME280;11985;49.404;7.734;2023-02-18T01:24:29;98173.56;;;8.97;100.00
23616;BME280;11985;49.404;7.734;2023-02-18T01:29:30;98166.78;;;9.03;100.00
23616;BME280;11985;49.404;7.734;2023-02-18T01:34:32;98157.38;;;9.09;100.00
23616;BME280;11985;49.404;7.734;2023-02-18T01:39:35;98149.81;;;9.14;100.00
23616;BME280;11985;49.404;7.734;2023-02-18T01:44:37;98147.81;;;9.16;100.00
23616;BME280;11985;49.404;7.734;2023-02-18T01:49:38;98157.50;;;9.15;100.00
23616;BME280;11985;49.404;7.734;2023-02-18T01:54:43;98157.06;;;9.12;100.00
23616;BME280;11985;49.404;7.734;2023-02-18T01:59:49;98162.00;;;9.07;100.00
23616;BME280;11985;49.404;7.734;2023-02-18T02:04:52;98163.72;;;8.99;100.00
23616;BME280;11985;49.404;7.734;2023-02-18T02:09:58;98158.31;;;8.93;100.00
23616;BME280;11985;49.404;7.734;2023-02-18T02:15:19;98138.34;;;8.84;100.00
23616;BME280;11985;49.404;7.734;2023-02-18T02:20:50;98128.94;;;8.89;100.00
23616;BME280;11985;49.404;7.734;2023-02-18T02:26:24;98128.94;;;8.89;100.00
23616;BME280;11985;49.404;7.734;2023-02-18T02:31:51;98098.13;;;8.83;100.00
23616;BME280;11985;49.404;7.734;2023-02-18T02:37:07;98095.84;;;8.80;100.00
23616;BME280;11985;49.404;7.734;2023-02-18T02:42:18;98088.13;;;8.79;100.00
23616;BME280;11985;49.404;7.734;2023-02-18T02:47:28;98090.59;;;8.80;100.00
23616;BME280;11985;49.404;7.734;2023-02-18T02:52:35;98099.78;;;8.76;100.00
23616;BME280;11985;49.404;7.734;2023-02-18T02:57:45;98095.34;;;8.77;100.00
23616;BME280;11985;49.404;7.734;2023-02-18T03:03:00;98092.72;;;8.77;100.00
23616;BME280;11985;49.404;7.734;2023-02-18T03:08:22;98088.13;;;8.79;100.00
23616;BME280;11985;49.404;7.734;2023-02-18T03:13:36;98065.50;;;8.78;100.00
23616;BME280;11985;49.404;7.734;2023-02-18T03:18:45;98062.22;;;8.76;100.00
23616;BME280;11985;49.404;7.734;2023-02-18T03:23:53;98049.25;;;8.74;100.00
23616;BME280;11985;49.404;7.734;2023-02-18T03:28:59;98062.69;;;8.79;100.00
23616;BME280;11985;49.404;7.734;2023-02-18T03:34:05;98068.75;;;8.80;100.00
23616;BME280;11985;49.404;7.734;2023-02-18T03:39:12;98073.53;;;8.76;100.00
23616;BME280;11985;49.404;7.734;2023-02-18T03:44:15;98069.91;;;8.77;100.00
23616;BME280;11985;49.404;7.734;2023-02-18T03:49:16;98071.91;;;8.75;100.00
23616;BME280;11985;49.404;7.734;2023-02-18T03:54:19;98067.00;;;8.72;100.00
23616;BME280;11985;49.404;7.734;2023-02-18T03:59:21;98067.00;;;8.72;100.00
23616;BME280;11985;49.404;7.734;2023-02-18T04:04:22;98058.13;;;8.73;100.00
23616;BME280;11985;49.404;7.734;2023-02-18T04:09:25;98055.03;;;8.69;100.00
23616;BME280;11985;49.404;7.734;2023-02-18T04:14:27;98052.59;;;8.68;100.00
23616;BME280;11985;49.404;7.734;2023-02-18T04:19:28;98050.28;;;8.65;100.00
23616;BME280;11985;49.404;7.734;2023-02-18T04:24:31;98043.78;;;8.61;100.00
23616;BME280;11985;49.404;7.734;2023-02-18T04:29:32;98044.03;;;8.66;100.00
23616;BME280;11985;49.404;7.734;2023-02-18T04:34:34;98061.16;;;8.62;100.00
23616;BME280;11985;49.404;7.734;2023-02-18T04:39:37;98057.06;;;8.59;100.00
23616;BME280;11985;49.404;7.734;2023-02-18T04:44:39;98042.00;;;8.53;100.00
23616;BME280;11985;49.404;7.734;2023-02-18T04:49:40;98035.31;;;8.51;100.00
23616;BME280;11985;49.404;7.734;2023-02-18T04:54:43;98033.00;;;8.48;100.00
23616;BME280;11985;49.404;7.734;2023-02-18T04:59:45;98032.19;;;8.47;100.00
23616;BME280;11985;49.404;7.734;2023-02-18T05:04:47;98028.75;;;8.46;100.00
23616;BME280;11985;49.404;7.734;2023-02-18T05:09:49;98025.31;;;8.46;100.00
23616;BME280;11985;49.404;7.734;2023-02-18T05:14:51;98018.88;;;8.49;100.00
23616;BME280;11985;49.404;7.734;2023-02-18T05:19:53;98036.94;;;8.52;100.00
23616;BME280;11985;49.404;7.734;2023-02-18T05:24:55;98032.31;;;8.54;100.00
23616;BME280;11985;49.404;7.734;2023-02-18T05:29:57;98017.72;;;8.51;100.00
23616;BME280;11985;49.404;7.734;2023-02-18T05:34:58;98013.63;;;8.49;100.00
23616;BME280;11985;49.404;7.734;2023-02-18T05:40:02;98014.94;;;8.53;100.00
23616;BME280;11985;49.404;7.734;2023-02-18T05:45:04;98015.53;;;8.63;100.00
23616;BME280;11985;49.404;7.734;2023-02-18T05:50:06;98014.72;;;8.62;100.00
23616;BME280;11985;49.404;7.734;2023-02-18T05:55:09;98019.28;;;8.60;100.00
23616;BME280;11985;49.404;7.734;2023-02-18T06:00:12;98021.47;;;8.57;100.00
23616;BME280;11985;49.404;7.734;2023-02-18T06:05:14;98024.72;;;8.59;100.00
23616;BME280;11985;49.404;7.734;2023-02-18T06:10:17;98011.78;;;8.57;100.00
23616;BME280;11985;49.404;7.734;2023-02-18T06:15:18;98014.41;;;8.57;100.00
23616;BME280;11985;49.404;7.734;2023-02-18T06:20:20;98007.97;;;8.60;100.00
23616;BME280;11985;49.404;7.734;2023-02-18T06:25:23;98007.94;;;8.68;100.00
23616;BME280;11985;49.404;7.734;2023-02-18T06:30:25;97997.19;;;8.78;100.00
23616;BME280;11985;49.404;7.734;2023-02-18T06:35:26;97992.88;;;8.85;100.00
23616;BME280;11985;49.404;7.734;2023-02-18T06:40:32;97987.13;;;8.81;100.00
23616;BME280;11985;49.404;7.734;2023-02-18T06:45:33;97970.75;;;8.79;100.00
23616;BME280;11985;49.404;7.734;2023-02-18T06:50:35;97960.06;;;8.81;100.00
23616;BME280;11985;49.404;7.734;2023-02-18T06:55:38;97962.88;;;8.79;100.00
23616;BME280;11985;49.404;7.734;2023-02-18T07:00:43;97950.03;;;8.84;100.00
23616;BME280;11985;49.404;7.734;2023-02-18T07:05:44;97955.84;;;8.94;100.00
23616;BME280;11985;49.404;7.734;2023-02-18T07:10:47;97962.84;;;9.02;100.00
23616;BME280;11985;49.404;7.734;2023-02-18T07:15:49;97956.56;;;9.03;100.00
23616;BME280;11985;49.404;7.734;2023-02-18T07:20:50;97953.13;;;9.03;100.00
23616;BME280;11985;49.404;7.734;2023-02-18T07:26:02;97946.88;;;9.04;100.00
23616;BME280;11985;49.404;7.734;2023-02-18T07:31:04;97939.81;;;9.04;100.00
23616;BME280;11985;49.404;7.734;2023-02-18T07:36:06;97947.88;;;9.03;100.00
23616;BME280;11985;49.404;7.734;2023-02-18T07:41:16;97945.53;;;9.08;100.00
23616;BME280;11985;49.404;7.734;2023-02-18T07:46:18;97935.31;;;9.13;100.00
23616;BME280;11985;49.404;7.734;2023-02-18T07:51:22;97946.81;;;9.12;100.00
23616;BME280;11985;49.404;7.734;2023-02-18T07:56:25;97949.72;;;9.17;100.00
23616;BME280;11985;49.404;7.734;2023-02-18T08:01:27;97953.44;;;9.22;100.00
23616;BME280;11985;49.404;7.734;2023-02-18T08:06:32;97959.50;;;9.23;100.00
23616;BME280;11985;49.404;7.734;2023-02-18T08:11:35;97949.00;;;9.23;100.00
23616;BME280;11985;49.404;7.734;2023-02-18T08:16:37;97945.91;;;9.19;100.00
23616;BME280;11985;49.404;7.734;2023-02-18T08:21:39;97937.22;;;9.19;100.00
23616;BME280;11985;49.404;7.734;2023-02-18T08:26:42;97921.78;;;9.16;100.00
23616;BME280;11985;49.404;7.734;2023-02-18T08:31:43;97943.66;;;9.16;100.00
23616;BME280;11985;49.404;7.734;2023-02-18T08:36:45;97944.81;;;9.14;100.00
23616;BME280;11985;49.404;7.734;2023-02-18T08:41:47;97950.06;;;9.14;100.00
23616;BME280;11985;49.404;7.734;2023-02-18T08:46:49;97935.31;;;9.13;100.00
23616;BME280;11985;49.404;7.734;2023-02-18T08:51:50;97909.31;;;9.18;100.00
23616;BME280;11985;49.404;7.734;2023-02-18T08:56:54;97931.69;;;9.29;100.00
23616;BME280;11985;49.404;7.734;2023-02-18T09:01:56;97922.44;;;9.33;100.00
23616;BME280;11985;49.404;7.734;2023-02-18T09:06:58;97922.88;;;9.36;100.00
23616;BME280;11985;49.404;7.734;2023-02-18T09:12:01;97934.97;;;9.45;100.00
23616;BME280;11985;49.404;7.734;2023-02-18T09:17:03;97937.19;;;9.48;100.00
23616;BME280;11985;49.404;7.734;2023-02-18T09:22:05;97930.41;;;9.54;100.00
23616;BME280;11985;49.404;7.734;2023-02-18T09:27:08;97944.47;;;9.46;100.00
23616;BME280;11985;49.404;7.734;2023-02-18T09:32:09;97968.94;;;9.47;100.00
23616;BME280;11985;49.404;7.734;2023-02-18T09:37:11;97955.19;;;9.45;100.00
23616;BME280;11985;49.404;7.734;2023-02-18T09:42:17;97959.97;;;9.41;100.00
23616;BME280;11985;49.404;7.734;2023-02-18T09:47:31;97960.16;;;9.40;100.00
23616;BME280;11985;49.404;7.734;2023-02-18T09:52:35;97939.66;;;9.35;100.00
23616;BME280;11985;49.404;7.734;2023-02-18T09:57:41;97959.97;;;9.41;100.00
23616;BME280;11985;49.404;7.734;2023-02-18T10:02:52;97946.19;;;9.39;100.00
23616;BME280;11985;49.404;7.734;2023-02-18T10:07:57;97962.53;;;9.49;100.00
23616;BME280;11985;49.404;7.734;2023-02-18T10:13:02;97960.25;;;9.46;100.00
23616;BME280;11985;49.404;7.734;2023-02-18T10:18:06;97954.09;;;9.39;100.00
23616;BME280;11985;49.404;7.734;2023-02-18T10:23:16;97966.75;;;9.36;100.00
23616;BME280;11985;49.404;7.734;2023-02-18T10:28:22;97971.22;;;9.35;100.00
23616;BME280;11985;49.404;7.734;2023-02-18T10:33:34;97969.75;;;9.47;100.00
23616;BME280;11985;49.404;7.734;2023-02-18T10:38:43;97988.72;;;9.58;100.00
23616;BME280;11985;49.404;7.734;2023-02-18T10:43:54;97984.72;;;9.62;100.00
23616;BME280;11985;49.404;7.734;2023-02-18T10:49:08;97992.16;;;9.73;100.00
23616;BME280;11985;49.404;7.734;2023-02-18T10:54:14;97989.00;;;9.77;100.00
23616;BME280;11985;49.404;7.734;2023-02-18T10:59:21;98000.59;;;9.83;100.00
23616;BME280;11985;49.404;7.734;2023-02-18T11:04:25;98012.63;;;9.92;100.00
23616;BME280;11985;49.404;7.734;2023-02-18T11:09:33;98000.13;;;9.94;100.00
23616;BME280;11985;49.404;7.734;2023-02-18T11:14:43;97993.97;;;9.87;100.00
23616;BME280;11985;49.404;7.734;2023-02-18T11:19:51;97991.59;;;9.92;100.00
23616;BME280;11985;49.404;7.734;2023-02-18T11:24:55;97986.06;;;9.87;100.00
23616;BME280;11985;49.404;7.734;2023-02-18T11:30:02;97990.50;;;10.01;100.00
23616;BME280;11985;49.404;7.734;2023-02-18T11:35:05;97985.94;;;10.25;100.00
23616;BME280;11985;49.404;7.734;2023-02-18T11:40:18;97987.25;;;9.99;99.59
23616;BME280;11985;49.404;7.734;2023-02-18T11:45:30;97975.72;;;10.00;100.00
23616;BME280;11985;49.404;7.734;2023-02-18T11:50:33;97976.75;;;10.21;98.75
23616;BME280;11985;49.404;7.734;2023-02-18T11:55:35;97954.78;;;10.28;97.59
23616;BME280;11985;49.404;7.734;2023-02-18T12:00:41;97956.81;;;10.48;96.55
23616;BME280;11985;49.404;7.734;2023-02-18T12:05:44;97949.59;;;10.56;94.48
23616;BME280;11985;49.404;7.734;2023-02-18T12:10:47;97931.28;;;10.70;94.42
23616;BME280;11985;49.404;7.734;2023-02-18T12:15:59;97934.91;;;10.69;93.27
23616;BME280;11985;49.404;7.734;2023-02-18T12:21:13;97935.28;;;10.66;92.96
23616;BME280;11985;49.404;7.734;2023-02-18T12:26:22;97932.72;;;10.72;92.65
23616;BME280;11985;49.404;7.734;2023-02-18T12:31:40;97919.09;;;10.69;92.63
23616;BME280;11985;49.404;7.734;2023-02-18T12:36:52;97925.88;;;10.78;91.48
23616;BME280;11985;49.404;7.734;2023-02-18T12:42:08;97925.47;;;10.81;91.66
23616;BME280;11985;49.404;7.734;2023-02-18T12:47:29;97924.75;;;10.94;91.43
23616;BME280;11985;49.404;7.734;2023-02-18T12:52:39;97913.03;;;11.31;89.58
23616;BME280;11985;49.404;7.734;2023-02-18T12:57:47;97900.56;;;11.12;88.29
23616;BME280;11985;49.404;7.734;2023-02-18T13:03:05;97899.16;;;11.16;87.93
23616;BME280;11985;49.404;7.734;2023-02-18T13:08:24;97903.44;;;11.17;86.51
23616;BME280;11985;49.404;7.734;2023-02-18T13:13:32;97892.88;;;11.51;86.31
23616;BME280;11985;49.404;7.734;2023-02-18T13:18:38;97902.81;;;11.49;85.10
23616;BME280;11985;49.404;7.734;2023-02-18T13:23:48;97889.06;;;11.26;84.74
23616;BME280;11985;49.404;7.734;2023-02-18T13:29:02;97888.50;;;10.96;85.66
23616;BME280;11985;49.404;7.734;2023-02-18T13:34:12;97884.19;;;10.88;85.81
23616;BME280;11985;49.404;7.734;2023-02-18T13:39:20;97894.66;;;10.53;86.83
23616;BME280;11985;49.404;7.734;2023-02-18T13:44:38;97878.31;;;10.37;87.38
23616;BME280;11985;49.404;7.734;2023-02-18T13:49:41;97879.25;;;10.29;87.42
23616;BME280;11985;49.404;7.734;2023-02-18T13:54:44;97895.38;;;10.04;87.29
23616;BME280;11985;49.404;7.734;2023-02-18T13:59:48;97888.00;;;10.15;88.19
23616;BME280;11985;49.404;7.734;2023-02-18T14:04:54;97878.34;;;10.00;88.78
23616;BME280;11985;49.404;7.734;2023-02-18T14:09:57;97874.72;;;10.01;90.26
23616;BME280;11985;49.404;7.734;2023-02-18T14:14:59;97884.34;;;9.94;91.27
23616;BME280;11985;49.404;7.734;2023-02-18T14:20:31;97881.81;;;9.86;91.86
23616;BME280;11985;49.404;7.734;2023-02-18T14:25:36;97884.19;;;9.81;91.78
23616;BME280;11985;49.404;7.734;2023-02-18T14:30:40;97897.75;;;9.78;92.57
23616;BME280;11985;49.404;7.734;2023-02-18T14:35:47;97896.34;;;9.82;93.33
23616;BME280;11985;49.404;7.734;2023-02-18T14:41:02;97878.06;;;9.74;93.85
23616;BME280;11985;49.404;7.734;2023-02-18T14:46:14;97886.16;;;9.58;95.57
23616;BME280;11985;49.404;7.734;2023-02-18T14:51:20;97859.59;;;9.52;97.39
23616;BME280;11985;49.404;7.734;2023-02-18T14:56:23;97870.09;;;9.52;98.70
23616;BME280;11985;49.404;7.734;2023-02-18T15:01:27;97873.56;;;9.38;99.89
23616;BME280;11985;49.404;7.734;2023-02-18T15:06:33;97869.97;;;9.39;100.00
23616;BME280;11985;49.404;7.734;2023-02-18T15:11:38;97879.75;;;9.45;100.00
23616;BME280;11985;49.404;7.734;2023-02-18T15:16:43;97879.81;;;9.37;100.00
23616;BME280;11985;49.404;7.734;2023-02-18T15:21:48;97881.56;;;9.30;100.00
23616;BME280;11985;49.404;7.734;2023-02-18T15:26:50;97882.63;;;9.21;100.00
23616;BME280;11985;49.404;7.734;2023-02-18T15:31:54;97883.53;;;8.98;100.00
23616;BME280;11985;49.404;7.734;2023-02-18T15:36:59;97904.38;;;8.85;100.00
23616;BME280;11985;49.404;7.734;2023-02-18T15:42:06;97918.03;;;8.81;100.00
23616;BME280;11985;49.404;7.734;2023-02-18T15:47:08;97897.84;;;8.81;100.00
23616;BME280;11985;49.404;7.734;2023-02-18T15:52:12;97893.59;;;8.80;100.00
23616;BME280;11985;49.404;7.734;2023-02-18T15:57:15;97891.78;;;8.81;100.00
23616;BME280;11985;49.404;7.734;2023-02-18T16:02:19;97891.69;;;8.74;100.00
23616;BME280;11985;49.404;7.734;2023-02-18T16:07:25;97882.88;;;8.67;100.00
23616;BME280;11985;49.404;7.734;2023-02-18T16:12:30;97881.78;;;8.61;100.00
23616;BME280;11985;49.404;7.734;2023-02-18T16:17:33;97886.91;;;8.55;100.00
23616;BME280;11985;49.404;7.734;2023-02-18T16:22:43;97879.47;;;8.43;100.00
23616;BME280;11985;49.404;7.734;2023-02-18T16:27:48;97895.09;;;8.37;100.00
23616;BME280;11985;49.404;7.734;2023-02-18T16:32:50;97894.66;;;8.25;100.00
23616;BME280;11985;49.404;7.734;2023-02-18T16:37:54;97902.06;;;8.21;100.00
23616;BME280;11985;49.404;7.734;2023-02-18T16:42:59;97898.81;;;8.19;100.00
23616;BME280;11985;49.404;7.734;2023-02-18T16:48:01;97899.81;;;8.18;100.00
23616;BME280;11985;49.404;7.734;2023-02-18T16:53:04;97905.25;;;8.17;100.00
23616;BME280;11985;49.404;7.734;2023-02-18T16:58:06;97906.50;;;8.21;100.00
23616;BME280;11985;49.404;7.734;2023-02-18T17:03:09;97908.41;;;8.27;100.00
23616;BME280;11985;49.404;7.734;2023-02-18T17:08:18;97914.66;;;8.26;100.00
23616;BME280;11985;49.404;7.734;2023-02-18T17:13:23;97912.44;;;8.15;100.00
23616;BME280;11985;49.404;7.734;2023-02-18T17:18:26;97916.88;;;8.14;100.00
23616;BME280;11985;49.404;7.734;2023-02-18T17:23:28;97920.28;;;8.00;100.00
23616;BME280;11985;49.404;7.734;2023-02-18T17:28:30;97927.97;;;8.02;100.00
23616;BME280;11985;49.404;7.734;2023-02-18T17:33:31;97930.91;;;7.99;100.00
23616;BME280;11985;49.404;7.734;2023-02-18T17:38:36;97934.88;;;7.94;100.00
23616;BME280;11985;49.404;7.734;2023-02-18T17:43:38;97943.72;;;7.93;100.00
23616;BME280;11985;49.404;7.734;2023-02-18T17:48:40;97946.72;;;7.90;100.00
23616;BME280;11985;49.404;7.734;2023-02-18T17:53:43;97947.03;;;7.87;100.00
23616;BME280;11985;49.404;7.734;2023-02-18T17:58:45;97940.47;;;7.91;100.00
23616;BME280;11985;49.404;7.734;2023-02-18T18:03:48;97932.97;;;7.88;100.00
23616;BME280;11985;49.404;7.734;2023-02-18T18:08:51;97937.72;;;7.85;100.00
23616;BME280;11985;49.404;7.734;2023-02-18T18:13:52;97931.00;;;7.82;100.00
23616;BME280;11985;49.404;7.734;2023-02-18T18:18:54;97925.75;;;7.82;100.00
23616;BME280;11985;49.404;7.734;2023-02-18T18:23:57;97930.69;;;7.77;100.00
23616;BME280;11985;49.404;7.734;2023-02-18T18:28:58;97940.06;;;7.72;100.00
23616;BME280;11985;49.404;7.734;2023-02-18T18:34:00;97941.88;;;7.71;100.00
23616;BME280;11985;49.404;7.734;2023-02-18T18:39:03;97947.94;;;7.72;100.00
23616;BME280;11985;49.404;7.734;2023-02-18T18:44:04;97942.53;;;7.73;100.00
23616;BME280;11985;49.404;7.734;2023-02-18T18:49:06;97948.09;;;7.70;100.00
23616;BME280;11985;49.404;7.734;2023-02-18T18:54:10;97951.03;;;7.75;100.00
23616;BME280;11985;49.404;7.734;2023-02-18T18:59:12;97951.13;;;7.90;100.00
23616;BME280;11985;49.404;7.734;2023-02-18T19:04:13;97945.38;;;7.94;100.00
23616;BME280;11985;49.404;7.734;2023-02-18T19:09:16;97942.41;;;7.98;100.00
23616;BME280;11985;49.404;7.734;2023-02-18T19:14:18;97936.84;;;7.92;100.00
23616;BME280;11985;49.404;7.734;2023-02-18T19:19:21;97938.22;;;7.88;100.00
23616;BME280;11985;49.404;7.734;2023-02-18T19:24:25;97938.84;;;7.90;100.00
23616;BME280;11985;49.404;7.734;2023-02-18T19:29:26;97938.84;;;7.90;100.00
23616;BME280;11985;49.404;7.734;2023-02-18T19:34:28;97939.47;;;7.92;100.00
23616;BME280;11985;49.404;7.734;2023-02-18T19:39:33;97942.28;;;7.91;100.00
23616;BME280;11985;49.404;7.734;2023-02-18T19:44:35;97939.16;;;7.87;100.00
23616;BME280;11985;49.404;7.734;2023-02-18T19:49:36;97935.72;;;7.87;100.00
23616;BME280;11985;49.404;7.734;2023-02-18T19:54:39;97938.88;;;7.82;100.00
23616;BME280;11985;49.404;7.734;2023-02-18T19:59:41;97939.22;;;7.79;100.00
23616;BME280;11985;49.404;7.734;2023-02-18T20:04:43;97933.97;;;7.79;100.00
23616;BME280;11985;49.404;7.734;2023-02-18T20:09:46;97938.75;;;7.76;100.00
23616;BME280;11985;49.404;7.734;2023-02-18T20:14:48;97923.19;;;7.74;100.00
23616;BME280;11985;49.404;7.734;2023-02-18T20:19:50;97923.00;;;7.76;100.00
23616;BME280;11985;49.404;7.734;2023-02-18T20:24:53;97937.78;;;7.68;100.00
23616;BME280;11985;49.404;7.734;2023-02-18T20:29:54;97931.75;;;7.68;100.00
23616;BME280;11985;49.404;7.734;2023-02-18T20:34:56;97935.69;;;7.64;100.00
23616;BME280;11985;49.404;7.734;2023-02-18T20:39:59;97934.06;;;7.63;100.00
23616;BME280;11985;49.404;7.734;2023-02-18T20:45:00;97927.19;;;7.62;100.00
23616;BME280;11985;49.404;7.734;2023-02-18T20:50:02;97918.31;;;7.63;100.00
23616;BME280;11985;49.404;7.734;2023-02-18T20:55:05;97920.31;;;7.61;100.00
23616;BME280;11985;49.404;7.734;2023-02-18T21:00:07;97913.06;;;7.63;100.00
23616;BME280;11985;49.404;7.734;2023-02-18T21:05:09;97913.88;;;7.63;100.00
23616;BME280;11985;49.404;7.734;2023-02-18T21:10:12;97927.50;;;7.67;100.00
23616;BME280;11985;49.404;7.734;2023-02-18T21:15:14;97915.19;;;7.67;100.00
23616;BME280;11985;49.404;7.734;2023-02-18T21:20:15;97914.09;;;7.54;100.00
23616;BME280;11985;49.404;7.734;2023-02-18T21:25:18;97908.72;;;7.47;100.00
23616;BME280;11985;49.404;7.734;2023-02-18T21:30:20;97903.66;;;7.37;100.00
23616;BME280;11985;49.404;7.734;2023-02-18T21:35:21;97891.56;;;7.36;100.00
23616;BME280;11985;49.404;7.734;2023-02-18T21:40:25;97884.69;;;7.35;100.00
23616;BME280;11985;49.404;7.734;2023-02-18T21:45:27;97887.94;;;7.37;100.00
23616;BME280;11985;49.404;7.734;2023-02-18T21:50:30;97881.06;;;7.36;100.00
23616;BME280;11985;49.404;7.734;2023-02-18T21:55:33;97872.84;;;7.48;100.00
23616;BME280;11985;49.404;7.734;2023-02-18T22:00:34;97877.38;;;7.62;100.00
23616;BME280;11985;49.404;7.734;2023-02-18T22:05:38;97864.25;;;7.62;100.00
23616;BME280;11985;49.404;7.734;2023-02-18T22:10:41;97863.66;;;7.52;100.00
23616;BME280;11985;49.404;7.734;2023-02-18T22:15:43;97858.44;;;7.44;100.00
23616;BME280;11985;49.404;7.734;2023-02-18T22:20:44;97856.03;;;7.34;100.00
23616;BME280;11985;49.404;7.734;2023-02-18T22:25:47;97850.38;;;7.14;100.00
23616;BME280;11985;49.404;7.734;2023-02-18T22:30:51;97846.50;;;7.02;100.00
23616;BME280;11985;49.404;7.734;2023-02-18T22:35:53;97845.19;;;6.98;100.00
23616;BME280;11985;49.404;7.734;2023-02-18T22:41:01;97850.78;;;6.95;100.00
23616;BME280;11985;49.404;7.734;2023-02-18T22:46:04;97859.00;;;6.83;100.00
23616;BME280;11985;49.404;7.734;2023-02-18T22:51:07;97850.50;;;6.73;100.00
23616;BME280;11985;49.404;7.734;2023-02-18T22:56:12;97843.31;;;6.67;100.00
23616;BME280;11985;49.404;7.734;2023-02-18T23:01:18;97839.22;;;6.65;100.00
23616;BME280;11985;49.404;7.734;2023-02-18T23:06:21;97840.69;;;6.59;100.00
23616;BME280;11985;49.404;7.734;2023-02-18T23:11:24;97830.22;;;6.59;100.00
23616;BME280;11985;49.404;7.734;2023-02-18T23:16:26;97825.66;;;6.61;100.00
23616;BME280;11985;49.404;7.734;2023-02-18T23:21:27;97828.44;;;6.59;100.00
23616;BME280;11985;49.404;7.734;2023-02-18T23:26:30;97823.88;;;6.61;100.00
23616;BME280;11985;49.404;7.734;2023-02-18T23:31:32;97816.97;;;6.60;100.00
23616;BME280;11985;49.404;7.734;2023-02-18T23:36:36;97829.41;;;6.58;100.00
23616;BME280;11985;49.404;7.734;2023-02-18T23:41:39;97812.94;;;6.50;100.00
23616;BME280;11985;49.404;7.734;2023-02-18T23:46:41;97815.06;;;6.46;100.00
23616;BME280;11985;49.404;7.734;2023-02-18T23:51:44;97806.72;;;6.43;100.00
23616;BME280;11985;49.404;7.734;2023-02-18T23:56:47;97796.59;;;6.40;100.00
